Time;durP1;ratioP1;P1;durP2;ratioP2;P2;SDS_P1;SDS_P2;PMS_P1;PMS_P2;Temp;Humidity;BMP_temperature;BMP_pressure;BME280_temperature;BME280_humidity;BME280_pressure;Samples;Min_cycle;Max_cycle;Signal;HPM_P1;HPM_P2
2024/01/29 00:02:01;;;;;;;10.15;7.10;;;;;;;3.90;100.00;102210.31;5111916;28;20110;-72
2024/01/29 00:04:27;;;;;;;8.35;5.18;;;;;;;3.93;100.00;102214.47;5111897;28;20038;-71
2024/01/29 00:06:53;;;;;;;9.27;6.80;;;;;;;4.02;100.00;102216.28;5111781;28;20430;-72
2024/01/29 00:09:18;;;;;;;9.93;6.53;;;;;;;4.01;100.00;102210.16;5111836;28;20528;-71
2024/01/29 00:11:44;;;;;;;8.90;6.93;;;;;;;4.23;100.00;102210.88;5111757;28;20031;-72
2024/01/29 00:14:09;;;;;;;8.02;6.60;;;;;;;4.35;100.00;102212.44;5093425;28;20029;-72
2024/01/29 00:16:34;;;;;;;10.60;6.45;;;;;;;4.39;100.00;102211.19;5093464;28;20395;-72
2024/01/29 00:19:00;;;;;;;8.65;6.60;;;;;;;4.39;100.00;102213.00;5111597;28;20027;-71
2024/01/29 00:21:26;;;;;;;9.00;6.75;;;;;;;4.41;100.00;102217.19;5093405;28;20028;-72
2024/01/29 00:23:51;;;;;;;10.48;7.13;;;;;;;4.38;100.00;102214.81;5093357;28;20035;-73
2024/01/29 00:26:16;;;;;;;7.30;6.50;;;;;;;4.37;100.00;102210.50;5111718;28;20034;-73
2024/01/29 00:28:42;;;;;;;9.38;6.07;;;;;;;4.26;100.00;102205.31;5111593;28;20024;-72
2024/01/29 00:31:07;;;;;;;10.68;7.13;;;;;;;4.24;100.00;102209.91;5111518;28;20032;-71
2024/01/29 00:33:33;;;;;;;8.73;7.05;;;;;;;4.20;100.00;102208.53;5111432;28;20034;-71
2024/01/29 00:35:58;;;;;;;9.68;6.68;;;;;;;4.20;100.00;102213.81;5093117;28;20023;-73
2024/01/29 00:38:23;;;;;;;9.65;7.35;;;;;;;4.20;100.00;102204.06;5093194;28;20050;-72
2024/01/29 00:40:49;;;;;;;10.00;6.85;;;;;;;4.15;100.00;102189.59;5094821;28;20494;-72
2024/01/29 00:43:14;;;;;;;8.38;7.05;;;;;;;4.13;100.00;102200.31;5115059;28;20031;-71
2024/01/29 00:45:40;;;;;;;10.00;6.97;;;;;;;4.08;100.00;102194.59;5114940;28;20024;-72
2024/01/29 00:48:05;;;;;;;9.70;6.70;;;;;;;4.09;100.00;102200.72;5114982;28;20051;-73
2024/01/29 00:50:30;;;;;;;9.88;6.18;;;;;;;4.07;100.00;102195.56;5114873;28;20020;-72
2024/01/29 00:52:56;;;;;;;10.40;6.20;;;;;;;4.00;100.00;102194.44;5096529;28;20067;-71
2024/01/29 00:55:22;;;;;;;8.93;6.32;;;;;;;3.96;100.00;102203.63;5114709;28;20019;-71
2024/01/29 00:57:47;;;;;;;12.02;6.60;;;;;;;3.89;100.00;102191.91;5114741;28;20027;-72
2024/01/29 01:00:14;;;;;;;10.85;6.22;;;;;;;3.88;100.00;102196.38;5114723;28;20022;-72
2024/01/29 01:02:39;;;;;;;10.38;5.72;;;;;;;3.89;100.00;102200.69;5096383;28;20028;-73
2024/01/29 01:05:06;;;;;;;10.50;6.97;;;;;;;3.87;100.00;102202.66;5096334;28;20520;-71
2024/01/29 01:07:32;;;;;;;9.07;6.18;;;;;;;3.92;100.00;102224.22;5096447;28;20408;-71
2024/01/29 01:09:57;;;;;;;9.52;6.85;;;;;;;3.85;100.00;102219.63;5114626;28;20019;-72
2024/01/29 01:12:22;;;;;;;8.10;6.38;;;;;;;3.86;100.00;102222.13;5114591;28;20026;-72
2024/01/29 01:14:48;;;;;;;10.25;6.65;;;;;;;3.88;100.00;102225.47;5114658;28;20039;-73
2024/01/29 01:17:13;;;;;;;8.32;6.15;;;;;;;3.76;100.00;102216.00;5096216;28;20392;-73
2024/01/29 01:19:39;;;;;;;9.55;6.22;;;;;;;3.78;100.00;102237.03;5114642;28;20463;-71
2024/01/29 01:22:05;;;;;;;12.18;6.80;;;;;;;3.66;100.00;102225.69;5114421;28;20032;-71
2024/01/29 01:24:30;;;;;;;7.95;6.40;;;;;;;3.57;100.00;102229.16;5114466;28;20387;-72
2024/01/29 01:26:55;;;;;;;9.00;6.32;;;;;;;3.56;100.00;102236.25;5114321;28;20100;-72
2024/01/29 01:29:21;;;;;;;9.27;6.35;;;;;;;3.52;100.00;102231.38;5096225;28;20031;-71
2024/01/29 01:31:46;;;;;;;9.73;6.25;;;;;;;3.46;100.00;102229.22;5114326;28;20028;-71
2024/01/29 01:34:12;;;;;;;10.85;6.15;;;;;;;3.34;100.00;102233.78;5095992;28;20030;-71
2024/01/29 01:36:37;;;;;;;10.23;6.10;;;;;;;3.24;100.00;102228.47;5114106;28;20024;-71
2024/01/29 01:39:03;;;;;;;9.65;5.80;;;;;;;3.13;100.00;102235.63;5114215;28;20076;-71
2024/01/29 01:41:29;;;;;;;9.25;5.95;;;;;;;3.02;100.00;102237.38;5095903;28;20121;-72
2024/01/29 01:43:54;;;;;;;13.20;7.25;;;;;;;2.98;100.00;102243.91;5114126;28;20019;-71
2024/01/29 01:46:22;;;;;;;10.38;6.90;;;;;;;2.90;100.00;102233.16;5095658;28;20085;-71
2024/01/29 01:48:50;;;;;;;10.88;6.30;;;;;;;2.83;100.00;102234.59;5114203;28;20098;-71
2024/01/29 01:51:16;;;;;;;10.88;6.97;;;;;;;2.73;100.00;102226.63;5113420;28;20028;-71
2024/01/29 01:53:42;;;;;;;9.98;6.75;;;;;;;2.59;100.00;102224.28;5095147;28;20114;-71
2024/01/29 01:56:08;;;;;;;14.65;8.15;;;;;;;2.49;100.00;102233.94;5095541;28;20068;-72
2024/01/29 01:58:34;;;;;;;11.75;7.22;;;;;;;2.45;100.00;102237.81;5113977;28;20026;-72
2024/01/29 02:00:59;;;;;;;10.80;7.03;;;;;;;2.42;100.00;102232.78;5113981;28;20038;-72
2024/01/29 02:03:25;;;;;;;8.70;6.50;;;;;;;2.32;100.00;102221.31;5113810;28;20375;-72
2024/01/29 02:05:51;;;;;;;8.10;6.65;;;;;;;2.33;100.00;102223.00;5113708;28;20415;-72
2024/01/29 02:08:17;;;;;;;11.15;7.50;;;;;;;2.28;100.00;102217.25;5095390;28;20149;-73
2024/01/29 02:10:43;;;;;;;10.20;6.90;;;;;;;2.30;100.00;102221.41;5095369;28;20031;-73
2024/01/29 02:13:15;;;;;;;12.95;7.15;;;;;;;2.32;100.00;102222.16;5113703;28;20537;-71
2024/01/29 02:15:43;;;;;;;9.48;6.72;;;;;;;2.34;100.00;102229.94;5113367;28;20039;-72
2024/01/29 02:18:08;;;;;;;9.20;6.57;;;;;;;2.41;100.00;102231.94;5113571;28;20031;-72
2024/01/29 02:20:35;;;;;;;8.73;6.40;;;;;;;2.39;100.00;102227.78;5113945;28;20384;-71
2024/01/29 02:23:00;;;;;;;9.43;7.07;;;;;;;2.34;100.00;102229.94;5095072;28;20069;-71
2024/01/29 02:25:26;;;;;;;8.70;6.65;;;;;;;2.29;100.00;102227.66;5113768;28;20122;-71
2024/01/29 02:27:51;;;;;;;10.85;6.68;;;;;;;2.29;100.00;102237.38;5094865;28;20243;-72
2024/01/29 02:30:17;;;;;;;9.75;6.65;;;;;;;2.22;100.00;102226.50;5095110;28;20035;-72
2024/01/29 02:32:42;;;;;;;13.25;7.30;;;;;;;2.17;100.00;102228.69;5094964;28;20130;-73
2024/01/29 02:35:08;;;;;;;10.27;6.93;;;;;;;2.09;100.00;102226.69;5113649;28;20055;-72
2024/01/29 02:37:34;;;;;;;10.25;6.53;;;;;;;2.03;100.00;102227.19;5113169;28;20070;-72
2024/01/29 02:40:00;;;;;;;10.57;7.38;;;;;;;1.93;100.00;102222.75;5094863;28;20031;-71
2024/01/29 02:42:25;;;;;;;9.25;6.40;;;;;;;1.86;100.00;102230.31;5113179;28;20030;-71
2024/01/29 02:44:50;;;;;;;13.18;7.60;;;;;;;1.76;100.00;102232.03;5113111;28;20028;-71
2024/01/29 02:47:16;;;;;;;9.90;7.45;;;;;;;1.71;100.00;102235.00;5113110;28;20042;-71
2024/01/29 02:49:43;;;;;;;11.35;7.25;;;;;;;1.58;100.00;102218.50;5113130;28;20030;-70
2024/01/29 02:52:09;;;;;;;10.50;7.78;;;;;;;1.53;100.00;102229.41;5112960;28;20468;-71
2024/01/29 02:54:34;;;;;;;14.38;9.05;;;;;;;1.47;100.00;102223.78;5112938;28;20049;-72
2024/01/29 02:56:59;;;;;;;12.43;7.47;;;;;;;1.39;100.00;102219.09;5094532;28;20039;-70
2024/01/29 02:59:25;;;;;;;10.32;6.70;;;;;;;1.42;100.00;102220.66;5112895;28;20107;-70
2024/01/29 03:01:50;;;;;;;11.48;7.30;;;;;;;1.41;100.00;102225.09;5094652;28;20028;-70
2024/01/29 03:04:15;;;;;;;12.68;8.07;;;;;;;1.40;100.00;102215.50;5112486;28;20153;-70
2024/01/29 03:06:41;;;;;;;12.32;7.68;;;;;;;1.42;100.00;102212.75;5094426;28;20024;-72
2024/01/29 03:09:06;;;;;;;13.10;7.93;;;;;;;1.39;100.00;102205.94;5112822;28;20495;-72
2024/01/29 03:11:31;;;;;;;15.60;8.07;;;;;;;1.42;100.00;102212.75;5094433;28;20042;-71
2024/01/29 03:13:57;;;;;;;13.68;8.07;;;;;;;1.51;100.00;102225.22;5112541;28;20024;-71
2024/01/29 03:16:22;;;;;;;11.20;7.55;;;;;;;1.51;100.00;102219.94;5112561;28;20059;-70
2024/01/29 03:18:48;;;;;;;11.30;8.05;;;;;;;1.53;100.00;102224.13;5112463;28;20464;-71
2024/01/29 03:21:13;;;;;;;13.35;7.28;;;;;;;1.55;100.00;102216.94;5094286;28;20391;-72
2024/01/29 03:23:39;;;;;;;13.65;9.18;;;;;;;1.57;100.00;102219.47;5112529;28;20023;-70
2024/01/29 03:26:04;;;;;;;12.52;7.45;;;;;;;1.63;100.00;102215.50;5112432;28;20027;-72
2024/01/29 03:28:29;;;;;;;11.77;7.30;;;;;;;1.69;100.00;102220.28;5094188;28;20020;-71
2024/01/29 03:30:55;;;;;;;10.68;7.90;;;;;;;1.67;100.00;102225.66;5094139;28;20027;-73
2024/01/29 03:33:20;;;;;;;13.35;7.35;;;;;;;1.66;100.00;102223.16;5112398;28;20357;-72
2024/01/29 03:35:45;;;;;;;13.15;7.68;;;;;;;1.67;100.00;102230.09;5112224;28;20418;-71
2024/01/29 03:38:11;;;;;;;10.95;7.72;;;;;;;1.68;100.00;102237.88;5094060;28;20118;-70
2024/01/29 03:40:37;;;;;;;11.52;7.55;;;;;;;1.66;100.00;102231.91;5112246;28;20024;-71
2024/01/29 03:43:02;;;;;;;11.52;7.30;;;;;;;1.59;100.00;102232.50;5112223;28;20115;-71
2024/01/29 03:45:28;;;;;;;11.20;7.43;;;;;;;1.58;100.00;102236.94;5112232;28;20046;-71
2024/01/29 03:47:53;;;;;;;9.70;7.57;;;;;;;1.54;100.00;102228.44;5093908;28;20016;-70
2024/01/29 03:50:18;;;;;;;12.05;7.00;;;;;;;1.51;100.00;102246.31;5112059;28;20440;-69
2024/01/29 03:52:44;;;;;;;8.75;7.43;;;;;;;1.42;100.00;102231.19;5093798;28;20032;-70
2024/01/29 03:55:10;;;;;;;12.07;7.32;;;;;;;1.33;100.00;102237.19;5093590;28;20028;-71
2024/01/29 03:57:38;;;;;;;12.88;7.20;;;;;;;1.34;100.00;102238.88;5093684;28;20049;-71
2024/01/29 04:00:06;;;;;;;10.98;7.25;;;;;;;1.38;100.00;102232.41;5112029;28;20034;-71
2024/01/29 04:02:32;;;;;;;11.10;7.20;;;;;;;1.40;100.00;102239.22;5093816;28;20062;-70
2024/01/29 04:04:57;;;;;;;11.40;7.75;;;;;;;1.44;100.00;102240.66;5111909;28;20055;-70
2024/01/29 04:07:22;;;;;;;11.15;7.72;;;;;;;1.51;100.00;102233.97;5111718;28;20019;-71
2024/01/29 04:09:48;;;;;;;11.38;7.95;;;;;;;1.73;100.00;102242.78;5111765;28;20468;-70
2024/01/29 04:12:13;;;;;;;10.52;7.15;;;;;;;1.80;100.00;102234.28;5093432;28;20536;-72
2024/01/29 04:14:38;;;;;;;11.20;7.85;;;;;;;1.91;100.00;102251.03;5111978;28;20041;-72
2024/01/29 04:17:06;;;;;;;10.27;7.70;;;;;;;2.03;100.00;102235.09;5097009;28;20032;-71
2024/01/29 04:19:32;;;;;;;9.13;8.05;;;;;;;2.15;100.00;102233.25;5115321;28;20383;-71
2024/01/29 04:21:57;;;;;;;15.85;7.75;;;;;;;2.21;100.00;102240.66;5115391;28;20115;-71
2024/01/29 04:24:23;;;;;;;9.10;6.85;;;;;;;2.31;100.00;102238.09;5115283;28;20027;-72
2024/01/29 04:26:48;;;;;;;10.13;6.95;;;;;;;2.34;100.00;102243.16;5096919;28;20023;-72
2024/01/29 04:29:13;;;;;;;10.70;6.80;;;;;;;2.35;100.00;102250.09;5115263;28;20024;-72
2024/01/29 04:31:39;;;;;;;7.95;6.13;;;;;;;2.42;100.00;102246.81;5115225;28;20034;-72
2024/01/29 04:34:05;;;;;;;9.70;7.05;;;;;;;2.44;100.00;102247.53;5096984;28;20019;-72
2024/01/29 04:36:30;;;;;;;10.35;7.22;;;;;;;2.48;100.00;102240.19;5096766;28;20085;-71
2024/01/29 04:38:56;;;;;;;9.23;7.20;;;;;;;2.63;100.00;102252.16;5096748;28;20118;-71
2024/01/29 04:41:22;;;;;;;9.90;6.55;;;;;;;2.71;100.00;102249.69;5096838;28;20118;-71
2024/01/29 04:43:48;;;;;;;9.73;6.55;;;;;;;2.81;100.00;102249.75;5115392;28;20066;-70
2024/01/29 04:46:14;;;;;;;8.27;6.78;;;;;;;2.90;100.00;102253.44;5115125;28;20514;-70
2024/01/29 04:48:40;;;;;;;10.18;6.97;;;;;;;2.90;100.00;102259.56;5115049;28;20027;-69
2024/01/29 04:51:07;;;;;;;8.05;6.82;;;;;;;2.91;100.00;102261.25;5096574;28;20028;-69
2024/01/29 04:53:33;;;;;;;11.30;6.78;;;;;;;2.91;100.00;102255.97;5115231;28;20031;-72
2024/01/29 04:55:59;;;;;;;8.65;6.93;;;;;;;2.90;100.00;102262.22;5114865;28;20034;-72
2024/01/29 04:58:24;;;;;;;11.95;7.10;;;;;;;2.87;100.00;102253.69;5096478;28;20424;-71
2024/01/29 05:00:50;;;;;;;8.82;6.18;;;;;;;2.83;100.00;102260.19;5096493;28;20104;-71
2024/01/29 05:03:15;;;;;;;7.97;7.00;;;;;;;2.75;100.00;102253.75;5096515;28;20031;-71
2024/01/29 05:05:40;;;;;;;10.30;6.80;;;;;;;2.80;100.00;102259.47;5114868;28;20069;-71
2024/01/29 05:08:06;;;;;;;9.18;7.43;;;;;;;2.79;100.00;102257.81;5114712;28;20039;-71
2024/01/29 05:10:31;;;;;;;11.90;7.53;;;;;;;2.73;100.00;102252.22;5114630;28;20027;-71
2024/01/29 05:12:56;;;;;;;9.23;6.97;;;;;;;2.71;100.00;102251.50;5114591;28;20065;-71
2024/01/29 05:15:22;;;;;;;9.65;6.80;;;;;;;2.68;100.00;102262.31;5114463;28;20027;-71
2024/01/29 05:17:47;;;;;;;11.50;7.28;;;;;;;2.62;100.00;102254.91;5114541;28;20034;-72
2024/01/29 05:20:12;;;;;;;8.82;6.78;;;;;;;2.59;100.00;102245.41;5096308;28;20385;-71
2024/01/29 05:22:38;;;;;;;9.60;6.85;;;;;;;2.60;100.00;102255.03;5096192;28;20047;-71
2024/01/29 05:25:04;;;;;;;9.65;6.82;;;;;;;2.64;100.00;102255.63;5096127;28;20069;-70
2024/01/29 05:27:29;;;;;;;13.25;6.35;;;;;;;2.64;100.00;102247.69;5096018;28;20081;-70
2024/01/29 05:29:55;;;;;;;10.27;7.25;;;;;;;2.68;100.00;102249.94;5096072;28;20020;-71
2024/01/29 05:32:21;;;;;;;8.40;6.35;;;;;;;2.78;100.00;102245.56;5114364;28;20034;-71
2024/01/29 05:34:46;;;;;;;7.72;6.07;;;;;;;2.78;100.00;102248.22;5095938;28;20059;-71
2024/01/29 05:37:12;;;;;;;9.35;6.38;;;;;;;2.78;100.00;102245.56;5114147;28;20074;-72
2024/01/29 05:39:37;;;;;;;9.38;7.10;;;;;;;2.76;100.00;102252.78;5114135;28;20072;-71
2024/01/29 05:42:03;;;;;;;9.50;6.80;;;;;;;2.80;100.00;102256.84;5114345;28;20028;-71
2024/01/29 05:44:29;;;;;;;8.43;6.75;;;;;;;2.80;100.00;102254.19;5095776;28;20133;-71
2024/01/29 05:46:54;;;;;;;10.80;7.78;;;;;;;2.82;100.00;102254.06;5114052;28;20376;-72
2024/01/29 05:49:21;;;;;;;9.98;6.80;;;;;;;2.87;100.00;102261.59;5113964;28;20024;-71
2024/01/29 05:51:47;;;;;;;10.57;6.70;;;;;;;2.82;100.00;102255.88;5095640;28;20485;-71
2024/01/29 05:54:12;;;;;;;16.75;6.53;;;;;;;2.82;100.00;102263.78;5113771;28;20487;-72
2024/01/29 05:56:41;;;;;;;9.27;6.50;;;;;;;2.82;100.00;102272.56;5095659;28;20024;-72
2024/01/29 05:59:07;;;;;;;8.05;6.22;;;;;;;2.82;100.00;102262.00;5113917;28;20471;-72
2024/01/29 06:01:32;;;;;;;8.95;6.60;;;;;;;2.90;100.00;102269.28;5113937;28;20024;-71
2024/01/29 06:03:57;;;;;;;8.90;6.75;;;;;;;2.88;100.00;102265.91;5095507;28;20032;-72
2024/01/29 06:06:23;;;;;;;8.68;6.13;;;;;;;2.90;100.00;102264.84;5095783;28;20027;-71
2024/01/29 06:08:48;;;;;;;10.60;6.75;;;;;;;2.90;100.00;102262.22;5113728;28;20071;-73
2024/01/29 06:11:13;;;;;;;9.27;6.22;;;;;;;2.94;100.00;102266.25;5113716;28;20054;-71
2024/01/29 06:13:39;;;;;;;8.45;6.00;;;;;;;2.95;100.00;102267.94;5095365;28;20031;-71
2024/01/29 06:16:04;;;;;;;10.40;6.18;;;;;;;2.96;100.00;102268.78;5095207;28;20020;-72
2024/01/29 06:18:30;;;;;;;9.40;6.20;;;;;;;2.97;100.00;102270.44;5113575;28;20043;-73
2024/01/29 06:20:55;;;;;;;7.80;6.85;;;;;;;3.00;100.00;102281.59;5113894;28;20023;-73
2024/01/29 06:23:20;;;;;;;9.60;6.15;;;;;;;3.01;100.00;102285.91;5113532;28;20420;-73
2024/01/29 06:25:46;;;;;;;8.50;6.70;;;;;;;3.01;100.00;102277.97;5113524;28;20036;-72
2024/01/29 06:28:12;;;;;;;9.55;6.43;;;;;;;3.01;100.00;102282.44;5113510;28;20028;-72
2024/01/29 06:30:37;;;;;;;7.57;6.40;;;;;;;3.04;100.00;102285.66;5113131;28;20418;-71
2024/01/29 06:33:03;;;;;;;8.20;6.47;;;;;;;3.01;100.00;102277.97;5095013;28;20031;-72
2024/01/29 06:35:28;;;;;;;8.93;7.10;;;;;;;3.07;100.00;102289.84;5113216;28;20430;-71
2024/01/29 06:37:53;;;;;;;7.72;6.88;;;;;;;3.09;100.00;102283.44;5112772;28;20023;-73
2024/01/29 06:40:22;;;;;;;8.43;6.55;;;;;;;3.11;100.00;102289.44;5094970;28;20106;-73
2024/01/29 06:42:48;;;;;;;8.45;6.00;;;;;;;3.09;100.00;102288.72;5113224;28;20024;-72
2024/01/29 06:45:13;;;;;;;8.65;6.72;;;;;;;3.14;100.00;102298.91;5113004;28;20035;-73
2024/01/29 06:47:38;;;;;;;7.45;5.70;;;;;;;3.11;100.00;102299.16;5113079;28;20084;-73
2024/01/29 06:50:04;;;;;;;8.85;6.95;;;;;;;3.14;100.00;102290.97;5113218;28;20110;-72
2024/01/29 06:52:29;;;;;;;8.52;5.90;;;;;;;3.13;100.00;102297.25;5113052;28;20037;-72
2024/01/29 06:54:55;;;;;;;8.55;6.60;;;;;;;3.13;100.00;102294.59;5112774;28;20035;-71
2024/01/29 06:57:20;;;;;;;10.20;6.65;;;;;;;3.12;100.00;102295.56;5112760;28;20040;-73
2024/01/29 06:59:46;;;;;;;10.80;5.72;;;;;;;3.12;100.00;102298.22;5112888;28;20020;-72
2024/01/29 07:02:11;;;;;;;8.63;6.18;;;;;;;3.09;100.00;102301.09;5112781;28;20031;-72
2024/01/29 07:04:37;;;;;;;9.80;6.07;;;;;;;3.06;100.00;102299.56;5094626;28;20027;-75
2024/01/29 07:07:02;;;;;;;9.48;6.63;;;;;;;3.05;100.00;102310.25;5094494;28;20036;-74
2024/01/29 07:09:28;;;;;;;8.68;6.40;;;;;;;3.09;100.00;102309.03;5112694;28;20057;-73
2024/01/29 07:11:53;;;;;;;9.15;6.43;;;;;;;3.05;100.00;102310.25;5094413;28;20031;-74
2024/01/29 07:14:18;;;;;;;9.52;6.70;;;;;;;3.07;100.00;102317.09;5112612;28;20069;-73
2024/01/29 07:16:43;;;;;;;10.98;6.50;;;;;;;3.07;100.00;102314.44;5094336;28;20015;-72
2024/01/29 07:19:09;;;;;;;10.35;6.93;;;;;;;3.09;100.00;102316.97;5112512;28;20119;-73
2024/01/29 07:21:34;;;;;;;12.30;7.95;;;;;;;3.10;100.00;102322.13;5112452;28;20098;-74
2024/01/29 07:24:00;;;;;;;13.13;8.52;;;;;;;3.10;100.00;102327.41;5112494;28;20387;-74
2024/01/29 07:26:25;;;;;;;12.75;8.43;;;;;;;3.17;100.00;102334.81;5094078;28;20070;-74
2024/01/29 07:28:50;;;;;;;10.90;7.43;;;;;;;3.22;100.00;102332.66;5094069;28;20395;-74
2024/01/29 07:31:17;;;;;;;11.32;7.25;;;;;;;3.23;100.00;102329.88;5112263;28;20027;-73
2024/01/29 07:33:43;;;;;;;10.57;7.25;;;;;;;3.28;100.00;102332.97;5094015;28;20016;-74
2024/01/29 07:36:08;;;;;;;11.75;6.90;;;;;;;3.32;100.00;102338.81;5093775;28;20083;-74
2024/01/29 07:38:34;;;;;;;9.48;6.97;;;;;;;3.34;100.00;102334.25;5094054;28;20051;-74
2024/01/29 07:40:59;;;;;;;11.80;6.57;;;;;;;3.45;100.00;102334.16;5093911;28;20019;-74
2024/01/29 07:43:24;;;;;;;10.65;7.53;;;;;;;3.55;100.00;102336.88;5112493;28;20088;-76
2024/01/29 07:45:50;;;;;;;11.68;7.72;;;;;;;3.72;100.00;102344.19;5094043;28;20043;-75
2024/01/29 07:48:15;;;;;;;8.75;6.30;;;;;;;3.94;100.00;102345.81;5093999;28;20035;-73
2024/01/29 07:50:44;;;;;;;9.00;6.65;;;;;;;4.21;100.00;102350.50;5093331;28;20528;-75
2024/01/29 07:53:09;;;;;;;10.57;6.40;;;;;;;4.54;100.00;102344.00;5112104;28;20039;-74
2024/01/29 07:55:34;;;;;;;11.68;6.10;;;;;;;4.80;100.00;102349.63;5111853;28;20472;-75
2024/01/29 07:58:00;;;;;;;8.73;6.22;;;;;;;4.85;100.00;102350.03;5111844;28;20107;-76
2024/01/29 08:00:25;;;;;;;10.15;7.43;;;;;;;5.01;100.00;102355.63;5111910;28;20426;-74
2024/01/29 08:02:50;;;;;;;7.43;6.00;;;;;;;5.01;100.00;102355.63;5112002;28;20110;-75
2024/01/29 08:05:16;;;;;;;8.68;6.68;;;;;;;4.95;100.00;102364.16;5093607;28;20160;-75
2024/01/29 08:07:41;;;;;;;9.82;6.57;;;;;;;5.17;100.00;102366.47;5093725;28;20128;-75
2024/01/29 08:10:07;;;;;;;9.15;6.80;;;;;;;5.33;100.00;102357.13;5111876;28;20023;-75
2024/01/29 08:12:32;;;;;;;10.20;6.85;;;;;;;5.27;100.00;102361.19;5111767;28;20076;-75
2024/01/29 08:14:57;;;;;;;8.10;6.10;;;;;;;5.21;100.00;102354.63;5093340;28;20068;-74
2024/01/29 08:17:23;;;;;;;10.15;7.03;;;;;;;5.28;100.00;102346.94;5093522;28;20035;-77
2024/01/29 08:19:48;;;;;;;11.70;7.88;;;;;;;5.44;100.00;102363.09;5111731;28;20028;-75
2024/01/29 08:22:13;;;;;;;13.75;7.72;;;;;;;5.63;100.00;102359.56;5093499;28;20022;-75
2024/01/29 08:24:39;;;;;;;14.48;8.40;;;;;;;5.90;100.00;102377.41;5093511;28;20038;-75
2024/01/29 08:27:05;;;;;;;9.60;6.93;;;;;;;5.94;100.00;102367.31;5111700;28;20031;-73
2024/01/29 08:29:31;;;;;;;8.57;6.85;;;;;;;5.99;100.00;102373.84;5111694;28;20503;-73
2024/01/29 08:31:56;;;;;;;9.15;6.78;;;;;;;6.06;100.00;102374.94;5111786;28;20038;-76
2024/01/29 08:34:23;;;;;;;10.13;7.47;;;;;;;6.09;100.00;102372.00;5111684;28;20448;-78
2024/01/29 08:36:48;;;;;;;12.43;8.00;;;;;;;6.05;100.00;102372.44;5111665;28;20043;-76
2024/01/29 08:39:13;;;;;;;8.98;7.05;;;;;;;5.99;100.00;102360.59;5111827;28;20035;-77
2024/01/29 08:41:39;;;;;;;9.35;6.90;;;;;;;6.02;100.00;102362.94;5093288;28;20045;-74
2024/01/29 08:44:05;;;;;;;10.48;6.32;;;;;;;6.03;100.00;102367.25;5111570;28;20086;-76
2024/01/29 08:46:30;;;;;;;7.72;5.90;;;;;;;6.08;100.00;102367.69;5111398;28;20032;-76
2024/01/29 08:48:56;;;;;;;9.30;6.70;;;;;;;6.19;100.00;102362.16;5111390;28;20028;-75
2024/01/29 08:51:21;;;;;;;11.43;7.18;;;;;;;6.48;100.00;102363.81;5093271;28;20423;-75
2024/01/29 08:53:46;;;;;;;7.78;6.25;;;;;;;6.71;100.00;102356.25;5093147;28;20024;-75
2024/01/29 08:56:12;;;;;;;9.85;6.72;;;;;;;6.87;100.00;102372.34;5111298;28;20154;-75
2024/01/29 08:58:38;;;;;;;10.18;6.80;;;;;;;6.92;100.00;102370.06;5111302;28;20027;-75
2024/01/29 09:01:03;;;;;;;10.00;7.25;;;;;;;6.80;100.00;102366.81;5093615;28;20027;-76
2024/01/29 09:03:29;;;;;;;11.07;7.38;;;;;;;6.67;100.00;102370.84;5114979;28;20063;-75
2024/01/29 09:05:54;;;;;;;9.48;6.50;;;;;;;6.59;100.00;102368.06;5114807;28;20403;-75
2024/01/29 09:08:21;;;;;;;12.23;8.15;;;;;;;6.63;100.00;102369.44;5114763;28;20391;-75
2024/01/29 09:10:47;;;;;;;9.85;7.55;;;;;;;6.63;100.00;102364.13;5114729;28;20130;-75
2024/01/29 09:13:12;;;;;;;11.60;6.80;;;;;;;6.52;100.00;102357.22;5114707;28;20503;-76
2024/01/29 09:15:38;;;;;;;10.05;7.38;;;;;;;6.37;100.00;102364.03;5096355;28;20691;-75
2024/01/29 09:18:04;;;;;;;10.50;6.50;;;;;;;6.24;100.00;102352.91;5114572;28;20467;-75
2024/01/29 09:20:29;;;;;;;10.40;6.50;;;;;;;6.24;100.00;102353.75;5114578;28;20028;-75
2024/01/29 09:22:55;;;;;;;8.70;6.63;;;;;;;6.25;100.00;102357.25;5114519;28;20523;-75
2024/01/29 09:25:20;;;;;;;11.32;6.65;;;;;;;6.22;100.00;102361.88;5096206;28;20503;-76
2024/01/29 09:27:46;;;;;;;9.70;7.72;;;;;;;6.18;100.00;102360.50;5096270;28;20035;-75
2024/01/29 09:30:12;;;;;;;9.25;7.50;;;;;;;6.15;100.00;102367.94;5096250;28;20039;-75
2024/01/29 09:32:37;;;;;;;9.77;6.95;;;;;;;6.22;100.00;102369.00;5096073;28;20035;-75
2024/01/29 09:35:04;;;;;;;10.73;6.85;;;;;;;6.43;100.00;102374.91;5114314;28;20111;-75
2024/01/29 09:37:29;;;;;;;12.52;7.07;;;;;;;6.71;100.00;102373.03;5114281;28;20034;-75
2024/01/29 09:39:55;;;;;;;11.60;7.97;;;;;;;7.35;100.00;102376.44;5114672;28;20020;-75
2024/01/29 09:42:24;;;;;;;9.68;7.22;;;;;;;8.21;100.00;102385.25;5114375;28;20068;-75
2024/01/29 09:44:52;;;;;;;15.70;8.75;;;;;;;8.78;100.00;102387.28;5095986;28;20463;-75
2024/01/29 09:47:19;;;;;;;14.50;7.47;;;;;;;9.36;100.00;102392.50;5114076;28;20032;-77
2024/01/29 09:49:46;;;;;;;11.57;7.32;;;;;;;9.40;100.00;102390.31;5114222;28;20400;-75
2024/01/29 09:52:12;;;;;;;9.43;6.93;;;;;;;9.53;100.00;102394.13;5114149;28;20032;-75
2024/01/29 09:54:39;;;;;;;8.77;7.13;;;;;;;9.60;100.00;102384.47;5095750;28;20464;-75
2024/01/29 09:57:04;;;;;;;13.55;8.10;;;;;;;9.44;100.00;102384.47;5113997;28;20036;-75
2024/01/29 09:59:30;;;;;;;8.77;6.80;;;;;;;9.38;100.00;102390.50;5113904;28;20028;-74
2024/01/29 10:01:59;;;;;;;12.85;7.47;;;;;;;9.20;100.00;102384.47;5113970;28;20038;-76
2024/01/29 10:04:25;;;;;;;10.77;7.97;;;;;;;8.99;100.00;102387.66;5095537;28;20036;-76
2024/01/29 10:06:50;;;;;;;9.70;7.18;;;;;;;8.77;100.00;102402.47;5113924;28;20116;-76
2024/01/29 10:09:15;;;;;;;8.90;7.03;;;;;;;8.59;100.00;102396.41;5095580;28;20383;-75
2024/01/29 10:11:42;;;;;;;9.68;7.50;;;;;;;8.54;100.00;102396.06;5113665;28;20028;-76
2024/01/29 10:14:08;;;;;;;8.45;6.47;;;;;;;8.65;100.00;102414.41;5112975;28;20488;-75
2024/01/29 10:16:33;;;;;;;9.05;7.38;;;;;;;8.74;100.00;102407.28;5113306;28;20114;-75
2024/01/29 10:19:00;;;;;;;8.48;6.93;;;;;;;9.17;100.00;102415.00;5113526;28;20120;-77
2024/01/29 10:21:26;;;;;;;9.85;8.35;;;;;;;9.63;100.00;102404.66;5095225;28;20134;-77
2024/01/29 10:23:56;;;;;;;7.70;6.43;;;;;;;9.65;100.00;102410.66;5113532;28;20523;-77
2024/01/29 10:26:25;;;;;;;10.50;6.75;;;;;;;9.50;100.00;102421.16;5113617;28;20394;-76
2024/01/29 10:29:04;;;;;;;10.23;6.72;;;;;;;9.86;100.00;102427.00;5113813;28;20020;-77
2024/01/29 10:31:31;;;;;;;10.38;7.25;;;;;;;10.22;100.00;102424.75;5113724;28;20034;-76
2024/01/29 10:33:57;;;;;;;8.95;6.75;;;;;;;10.85;100.00;102422.94;5095117;28;20019;-75
2024/01/29 10:36:23;;;;;;;9.65;7.25;;;;;;;10.98;100.00;102425.84;5113523;28;20361;-75
2024/01/29 10:38:51;;;;;;;10.23;8.05;;;;;;;10.75;100.00;102417.81;5113342;28;20488;-76
2024/01/29 10:41:17;;;;;;;11.48;7.85;;;;;;;11.15;100.00;102415.84;5113272;28;20024;-75
2024/01/29 10:43:50;;;;;;;9.93;7.97;;;;;;;11.98;100.00;102420.31;5113268;28;20036;-76
2024/01/29 10:46:20;;;;;;;10.35;7.68;;;;;;;12.13;100.00;102423.00;5113190;28;20024;-75
2024/01/29 10:48:46;;;;;;;10.90;7.82;;;;;;;11.97;100.00;102419.50;5113220;28;20468;-76
2024/01/29 10:51:15;;;;;;;8.90;6.80;;;;;;;12.22;100.00;102424.59;5113195;28;20418;-75
2024/01/29 10:53:42;;;;;;;8.70;6.97;;;;;;;12.30;100.00;102433.34;5113167;28;20030;-74
2024/01/29 10:56:11;;;;;;;11.90;7.93;;;;;;;11.72;100.00;102416.19;5112907;28;20460;-77
2024/01/29 10:58:38;;;;;;;8.85;7.20;;;;;;;11.45;100.00;102417.63;5094861;28;20026;-76
2024/01/29 11:01:06;;;;;;;9.68;7.50;;;;;;;11.35;100.00;102418.91;5113113;28;20035;-72
2024/01/29 11:03:34;;;;;;;10.95;7.28;;;;;;;11.62;100.00;102417.47;5113026;28;20095;-75
2024/01/29 11:06:07;;;;;;;9.95;7.40;;;;;;;11.31;100.00;102415.75;5094637;28;20027;-75
2024/01/29 11:08:39;;;;;;;11.43;8.30;;;;;;;10.66;100.00;102415.34;5112912;28;20028;-75
2024/01/29 11:11:05;;;;;;;9.43;6.95;;;;;;;10.95;100.00;102409.31;5094383;28;20483;-75
2024/01/29 11:13:31;;;;;;;10.13;7.53;;;;;;;11.49;100.00;102426.13;5112678;28;20095;-75
2024/01/29 11:15:57;;;;;;;8.32;6.75;;;;;;;11.43;100.00;102416.13;5112631;28;20081;-75